<?xml version="1.0" encoding="utf-8"?>
<gpx xmlns:xsi="http://www.w3.org/2001/XMLSchema-instance" xmlns:xsd="http://www.w3.org/2001/XMLSchema" version="1.1" creator="Shapelink.com" xmlns="http://www.topografix.com/GPX/1/1" xmlns:gpxtpx="http://www.garmin.com/xmlschemas/TrackPointExtension/v1">
  <metadata>
    <name>Cykling 17.33 km, 2019-04-28</name>
    <desc></desc>
    <author><name>Marian Moron</name></author> 
    <time>2019-04-28T12:43:14Z</time>
  </metadata>
  <trk>
    <name>Cykling 17.33 km, 2019-04-28</name>
    <trkseg>
      <trkpt lat="51.228621980862" lon="4.449201703416">
        <ele>5.6</ele>
        <time>2019-04-28T12:43:14Z</time>
      </trkpt>
      <trkpt lat="51.228846615782" lon="4.448804401356">
        <ele>4</ele>
        <time>2019-04-28T12:43:37Z</time>
      </trkpt>
      <trkpt lat="51.228850052361" lon="4.448775148525">
        <ele>3.6</ele>
        <time>2019-04-28T12:43:48Z</time>
      </trkpt>
      <trkpt lat="51.228861284107" lon="4.448758971458">
        <ele>3.6</ele>
        <time>2019-04-28T12:43:52Z</time>
      </trkpt>
      <trkpt lat="51.2290663892" lon="4.448390251677">
        <ele>4.2</ele>
        <time>2019-04-28T12:44:20Z</time>
      </trkpt>
      <trkpt lat="51.228844687945" lon="4.447960092569">
        <ele>5.2</ele>
        <time>2019-04-28T12:44:38Z</time>
      </trkpt>
      <trkpt lat="51.228812166173" lon="4.447841404865">
        <ele>5</ele>
        <time>2019-04-28T12:44:51Z</time>
      </trkpt>
      <trkpt lat="51.228821386263" lon="4.447917847793">
        <ele>4.4</ele>
        <time>2019-04-28T12:47:56Z</time>
      </trkpt>
      <trkpt lat="51.228795318554" lon="4.447893875559">
        <ele>4.6</ele>
        <time>2019-04-28T12:48:04Z</time>
      </trkpt>
      <trkpt lat="51.228409415878" lon="4.44726766381">
        <ele>4</ele>
        <time>2019-04-28T12:48:25Z</time>
      </trkpt>
      <trkpt lat="51.228343785601" lon="4.447264562507">
        <ele>5.2</ele>
        <time>2019-04-28T12:48:29Z</time>
      </trkpt>
      <trkpt lat="51.228222415689" lon="4.447406970988">
        <ele>9.8</ele>
        <time>2019-04-28T12:48:38Z</time>
      </trkpt>
      <trkpt lat="51.228255188918" lon="4.447411748671">
        <ele>15.4</ele>
        <time>2019-04-28T12:49:18Z</time>
      </trkpt>
      <trkpt lat="51.228221326042" lon="4.447446449737">
        <ele>14.8</ele>
        <time>2019-04-28T12:49:24Z</time>
      </trkpt>
      <trkpt lat="51.227750682357" lon="4.447971408134">
        <ele>18</ele>
        <time>2019-04-28T12:49:44Z</time>
      </trkpt>
      <trkpt lat="51.227321361439" lon="4.448530983778">
        <ele>19.8</ele>
        <time>2019-04-28T12:50:01Z</time>
      </trkpt>
      <trkpt lat="51.227066300222" lon="4.449069185577">
        <ele>3.8</ele>
        <time>2019-04-28T12:50:15Z</time>
      </trkpt>
      <trkpt lat="51.226890783236" lon="4.449033646321">
        <ele>5.6</ele>
        <time>2019-04-28T12:50:30Z</time>
      </trkpt>
      <trkpt lat="51.226621556608" lon="4.449387530139">
        <ele>4</ele>
        <time>2019-04-28T12:50:44Z</time>
      </trkpt>
      <trkpt lat="51.22629030392" lon="4.44887615042">
        <ele>0</ele>
        <time>2019-04-28T12:51:03Z</time>
      </trkpt>
      <trkpt lat="51.22625258537" lon="4.448916886454">
        <ele>0</ele>
        <time>2019-04-28T12:51:05Z</time>
      </trkpt>
      <trkpt lat="51.225890152014" lon="4.449601017132">
        <ele>0</ele>
        <time>2019-04-28T12:51:25Z</time>
      </trkpt>
      <trkpt lat="51.225355470613" lon="4.449752813341">
        <ele>0</ele>
        <time>2019-04-28T12:51:42Z</time>
      </trkpt>
      <trkpt lat="51.224862531074" lon="4.450163023527">
        <ele>0</ele>
        <time>2019-04-28T12:51:57Z</time>
      </trkpt>
      <trkpt lat="51.224449135766" lon="4.45078470905">
        <ele>0</ele>
        <time>2019-04-28T12:52:11Z</time>
      </trkpt>
      <trkpt lat="51.224023335246" lon="4.451349984386">
        <ele>0</ele>
        <time>2019-04-28T12:52:29Z</time>
      </trkpt>
      <trkpt lat="51.223480355764" lon="4.451266919757">
        <ele>0</ele>
        <time>2019-04-28T12:52:47Z</time>
      </trkpt>
      <trkpt lat="51.222942824517" lon="4.45110825039">
        <ele>0</ele>
        <time>2019-04-28T12:53:06Z</time>
      </trkpt>
      <trkpt lat="51.22238936766" lon="4.451127612579">
        <ele>0</ele>
        <time>2019-04-28T12:53:24Z</time>
      </trkpt>
      <trkpt lat="51.221885531651" lon="4.451450483367">
        <ele>0</ele>
        <time>2019-04-28T12:53:39Z</time>
      </trkpt>
      <trkpt lat="51.221350347336" lon="4.451677129943">
        <ele>0</ele>
        <time>2019-04-28T12:54:01Z</time>
      </trkpt>
      <trkpt lat="51.220791023149" lon="4.4518114918">
        <ele>5.4</ele>
        <time>2019-04-28T12:54:18Z</time>
      </trkpt>
      <trkpt lat="51.220238320663" lon="4.451916097912">
        <ele>7.6</ele>
        <time>2019-04-28T12:54:35Z</time>
      </trkpt>
      <trkpt lat="51.219678493562" lon="4.452038222195">
        <ele>4.2</ele>
        <time>2019-04-28T12:54:50Z</time>
      </trkpt>
      <trkpt lat="51.219135765537" lon="4.452115587132">
        <ele>0</ele>
        <time>2019-04-28T12:55:02Z</time>
      </trkpt>
      <trkpt lat="51.218970139193" lon="4.452438625558">
        <ele>0</ele>
        <time>2019-04-28T12:55:10Z</time>
      </trkpt>
      <trkpt lat="51.219265684987" lon="4.453190146712">
        <ele>0</ele>
        <time>2019-04-28T12:55:27Z</time>
      </trkpt>
      <trkpt lat="51.21953030157" lon="4.453958264028">
        <ele>0</ele>
        <time>2019-04-28T12:55:48Z</time>
      </trkpt>
      <trkpt lat="51.219742782735" lon="4.454742726049">
        <ele>0</ele>
        <time>2019-04-28T12:56:13Z</time>
      </trkpt>
      <trkpt lat="51.220098175295" lon="4.455444374898">
        <ele>1.2</ele>
        <time>2019-04-28T12:56:30Z</time>
      </trkpt>
      <trkpt lat="51.220376119099" lon="4.456225484159">
        <ele>2</ele>
        <time>2019-04-28T12:56:48Z</time>
      </trkpt>
      <trkpt lat="51.220461782117" lon="4.457101811804">
        <ele>1.4</ele>
        <time>2019-04-28T12:57:07Z</time>
      </trkpt>
      <trkpt lat="51.220381315877" lon="4.457995154706">
        <ele>2.8</ele>
        <time>2019-04-28T12:57:23Z</time>
      </trkpt>
      <trkpt lat="51.220413502373" lon="4.458851952524">
        <ele>4.4</ele>
        <time>2019-04-28T12:57:40Z</time>
      </trkpt>
      <trkpt lat="51.220444515403" lon="4.459724424495">
        <ele>2.2</ele>
        <time>2019-04-28T12:57:56Z</time>
      </trkpt>
      <trkpt lat="51.220410652527" lon="4.460631513713">
        <ele>0</ele>
        <time>2019-04-28T12:58:14Z</time>
      </trkpt>
      <trkpt lat="51.220121560796" lon="4.461394266613">
        <ele>14.6</ele>
        <time>2019-04-28T12:58:35Z</time>
      </trkpt>
      <trkpt lat="51.220012009363" lon="4.462253914277">
        <ele>6.4</ele>
        <time>2019-04-28T12:58:50Z</time>
      </trkpt>
      <trkpt lat="51.220066575532" lon="4.463159327115">
        <ele>0</ele>
        <time>2019-04-28T12:59:08Z</time>
      </trkpt>
      <trkpt lat="51.220171014006" lon="4.464027440498">
        <ele>0</ele>
        <time>2019-04-28T12:59:24Z</time>
      </trkpt>
      <trkpt lat="51.220191465842" lon="4.464921034857">
        <ele>0</ele>
        <time>2019-04-28T12:59:39Z</time>
      </trkpt>
      <trkpt lat="51.220170511092" lon="4.465824855134">
        <ele>0</ele>
        <time>2019-04-28T12:59:53Z</time>
      </trkpt>
      <trkpt lat="51.220184005951" lon="4.466717946579">
        <ele>0</ele>
        <time>2019-04-28T13:00:10Z</time>
      </trkpt>
      <trkpt lat="51.22014637122" lon="4.466959596756">
        <ele>0</ele>
        <time>2019-04-28T13:00:15Z</time>
      </trkpt>
      <trkpt lat="51.219925424336" lon="4.466975019452">
        <ele>0</ele>
        <time>2019-04-28T13:00:24Z</time>
      </trkpt>
      <trkpt lat="51.21987395947" lon="4.467041571738">
        <ele>0</ele>
        <time>2019-04-28T13:00:27Z</time>
      </trkpt>
      <trkpt lat="51.219309773781" lon="4.467036291141">
        <ele>0</ele>
        <time>2019-04-28T13:00:44Z</time>
      </trkpt>
      <trkpt lat="51.218822953029" lon="4.467294286023">
        <ele>0</ele>
        <time>2019-04-28T13:01:02Z</time>
      </trkpt>
      <trkpt lat="51.218803674659" lon="4.467326137243">
        <ele>0</ele>
        <time>2019-04-28T13:01:04Z</time>
      </trkpt>
      <trkpt lat="51.218754556725" lon="4.467984954583">
        <ele>0.6</ele>
        <time>2019-04-28T13:02:25Z</time>
      </trkpt>
      <trkpt lat="51.21876754867" lon="4.468059302036">
        <ele>1.4</ele>
        <time>2019-04-28T13:02:30Z</time>
      </trkpt>
      <trkpt lat="51.218518103326" lon="4.468812667208">
        <ele>0</ele>
        <time>2019-04-28T13:02:54Z</time>
      </trkpt>
      <trkpt lat="51.218214930003" lon="4.469423456261">
        <ele>0</ele>
        <time>2019-04-28T13:03:13Z</time>
      </trkpt>
      <trkpt lat="51.218038993922" lon="4.46941180542">
        <ele>0</ele>
        <time>2019-04-28T13:03:22Z</time>
      </trkpt>
      <trkpt lat="51.21755552593" lon="4.469221703928">
        <ele>0</ele>
        <time>2019-04-28T13:03:45Z</time>
      </trkpt>
      <trkpt lat="51.217607409891" lon="4.468458280476">
        <ele>0</ele>
        <time>2019-04-28T13:04:05Z</time>
      </trkpt>
      <trkpt lat="51.21764688864" lon="4.468449144205">
        <ele>0</ele>
        <time>2019-04-28T13:04:08Z</time>
      </trkpt>
      <trkpt lat="51.217557872862" lon="4.468445791445">
        <ele>0</ele>
        <time>2019-04-28T13:08:20Z</time>
      </trkpt>
      <trkpt lat="51.217539348863" lon="4.468430787844">
        <ele>0</ele>
        <time>2019-04-28T13:08:22Z</time>
      </trkpt>
      <trkpt lat="51.217133581084" lon="4.467833074555">
        <ele>0</ele>
        <time>2019-04-28T13:08:45Z</time>
      </trkpt>
      <trkpt lat="51.216739799422" lon="4.46719395468">
        <ele>0</ele>
        <time>2019-04-28T13:09:09Z</time>
      </trkpt>
      <trkpt lat="51.216332439082" lon="4.466557600832">
        <ele>0</ele>
        <time>2019-04-28T13:09:27Z</time>
      </trkpt>
      <trkpt lat="51.215869003831" lon="4.465999785387">
        <ele>0</ele>
        <time>2019-04-28T13:09:41Z</time>
      </trkpt>
      <trkpt lat="51.215492907978" lon="4.466466070484">
        <ele>0</ele>
        <time>2019-04-28T13:09:59Z</time>
      </trkpt>
      <trkpt lat="51.215409508073" lon="4.466958926204">
        <ele>0</ele>
        <time>2019-04-28T13:10:14Z</time>
      </trkpt>
      <trkpt lat="51.215149585354" lon="4.467022293368">
        <ele>0</ele>
        <time>2019-04-28T13:10:26Z</time>
      </trkpt>
      <trkpt lat="51.214630913382" lon="4.466764633762">
        <ele>0</ele>
        <time>2019-04-28T13:10:55Z</time>
      </trkpt>
      <trkpt lat="51.21414409263" lon="4.46637755762">
        <ele>1</ele>
        <time>2019-04-28T13:11:18Z</time>
      </trkpt>
      <trkpt lat="51.213650566358" lon="4.466039599412">
        <ele>0</ele>
        <time>2019-04-28T13:11:32Z</time>
      </trkpt>
      <trkpt lat="51.213358205686" lon="4.466148983207">
        <ele>0</ele>
        <time>2019-04-28T13:11:42Z</time>
      </trkpt>
      <trkpt lat="51.213408077991" lon="4.4655745716">
        <ele>0</ele>
        <time>2019-04-28T13:11:53Z</time>
      </trkpt>
      <trkpt lat="51.212897033548" lon="4.465257232866">
        <ele>0</ele>
        <time>2019-04-28T13:12:08Z</time>
      </trkpt>
      <trkpt lat="51.212709865721" lon="4.465156566247">
        <ele>0</ele>
        <time>2019-04-28T13:12:19Z</time>
      </trkpt>
      <trkpt lat="51.212233689982" lon="4.465547078968">
        <ele>0</ele>
        <time>2019-04-28T13:12:44Z</time>
      </trkpt>
      <trkpt lat="51.212205610617" lon="4.466425166812">
        <ele>0</ele>
        <time>2019-04-28T13:13:02Z</time>
      </trkpt>
      <trkpt lat="51.212405518932" lon="4.467212059584">
        <ele>0</ele>
        <time>2019-04-28T13:13:18Z</time>
      </trkpt>
      <trkpt lat="51.212758816017" lon="4.467858974626">
        <ele>0</ele>
        <time>2019-04-28T13:13:38Z</time>
      </trkpt>
      <trkpt lat="51.212870546744" lon="4.468578728379">
        <ele>0</ele>
        <time>2019-04-28T13:13:54Z</time>
      </trkpt>
      <trkpt lat="51.212889238381" lon="4.468595240722">
        <ele>0</ele>
        <time>2019-04-28T13:14:29Z</time>
      </trkpt>
      <trkpt lat="51.212906169819" lon="4.468610998694">
        <ele>0</ele>
        <time>2019-04-28T13:14:34Z</time>
      </trkpt>
      <trkpt lat="51.213137929354" lon="4.468927080143">
        <ele>0</ele>
        <time>2019-04-28T13:14:43Z</time>
      </trkpt>
      <trkpt lat="51.213199787776" lon="4.469117516911">
        <ele>0</ele>
        <time>2019-04-28T13:14:46Z</time>
      </trkpt>
      <trkpt lat="51.213264328406" lon="4.469985797932">
        <ele>0</ele>
        <time>2019-04-28T13:15:02Z</time>
      </trkpt>
      <trkpt lat="51.213447640559" lon="4.470827424511">
        <ele>0</ele>
        <time>2019-04-28T13:15:19Z</time>
      </trkpt>
      <trkpt lat="51.213344710827" lon="4.471653209299">
        <ele>0</ele>
        <time>2019-04-28T13:15:36Z</time>
      </trkpt>
      <trkpt lat="51.213471277517" lon="4.472495841706">
        <ele>0</ele>
        <time>2019-04-28T13:15:52Z</time>
      </trkpt>
      <trkpt lat="51.213580577493" lon="4.473381137984">
        <ele>0</ele>
        <time>2019-04-28T13:16:08Z</time>
      </trkpt>
      <trkpt lat="51.213258544895" lon="4.473895954282">
        <ele>0</ele>
        <time>2019-04-28T13:16:26Z</time>
      </trkpt>
      <trkpt lat="51.213185706184" lon="4.474020676954">
        <ele>0</ele>
        <time>2019-04-28T13:16:31Z</time>
      </trkpt>
      <trkpt lat="51.213378070789" lon="4.474836403462">
        <ele>0</ele>
        <time>2019-04-28T13:16:49Z</time>
      </trkpt>
      <trkpt lat="51.213502290547" lon="4.4756999068">
        <ele>0</ele>
        <time>2019-04-28T13:17:05Z</time>
      </trkpt>
      <trkpt lat="51.213639921345" lon="4.476535330773">
        <ele>0</ele>
        <time>2019-04-28T13:17:20Z</time>
      </trkpt>
      <trkpt lat="51.213846032266" lon="4.477379136646">
        <ele>0</ele>
        <time>2019-04-28T13:17:35Z</time>
      </trkpt>
      <trkpt lat="51.214251548588" lon="4.477974503003">
        <ele>0</ele>
        <time>2019-04-28T13:17:49Z</time>
      </trkpt>
      <trkpt lat="51.214704422645" lon="4.478500718685">
        <ele>0</ele>
        <time>2019-04-28T13:18:04Z</time>
      </trkpt>
      <trkpt lat="51.21518680099" lon="4.478868348819">
        <ele>0</ele>
        <time>2019-04-28T13:18:19Z</time>
      </trkpt>
      <trkpt lat="51.215730367205" lon="4.479025760901">
        <ele>0</ele>
        <time>2019-04-28T13:18:35Z</time>
      </trkpt>
      <trkpt lat="51.216078467512" lon="4.479325330007">
        <ele>0</ele>
        <time>2019-04-28T13:18:47Z</time>
      </trkpt>
      <trkpt lat="51.216139403925" lon="4.479327676939">
        <ele>0</ele>
        <time>2019-04-28T13:18:49Z</time>
      </trkpt>
      <trkpt lat="51.21614233759" lon="4.480210961561">
        <ele>0</ele>
        <time>2019-04-28T13:19:07Z</time>
      </trkpt>
      <trkpt lat="51.216211739722" lon="4.480370972032">
        <ele>0</ele>
        <time>2019-04-28T13:19:11Z</time>
      </trkpt>
      <trkpt lat="51.216583644625" lon="4.480501394396">
        <ele>0</ele>
        <time>2019-04-28T13:19:23Z</time>
      </trkpt>
      <trkpt lat="51.216457580849" lon="4.481333800885">
        <ele>0</ele>
        <time>2019-04-28T13:19:40Z</time>
      </trkpt>
      <trkpt lat="51.216480631074" lon="4.481448297639">
        <ele>0</ele>
        <time>2019-04-28T13:19:43Z</time>
      </trkpt>
      <trkpt lat="51.216978683572" lon="4.481598166011">
        <ele>0</ele>
        <time>2019-04-28T13:20:13Z</time>
      </trkpt>
      <trkpt lat="51.216576687648" lon="4.481987924361">
        <ele>0</ele>
        <time>2019-04-28T13:20:38Z</time>
      </trkpt>
      <trkpt lat="51.216033624347" lon="4.482030672051">
        <ele>0</ele>
        <time>2019-04-28T13:20:53Z</time>
      </trkpt>
      <trkpt lat="51.215492153607" lon="4.481902177524">
        <ele>0</ele>
        <time>2019-04-28T13:21:07Z</time>
      </trkpt>
      <trkpt lat="51.214953532713" lon="4.481705454331">
        <ele>0</ele>
        <time>2019-04-28T13:21:23Z</time>
      </trkpt>
      <trkpt lat="51.214445170478" lon="4.481374788376">
        <ele>0</ele>
        <time>2019-04-28T13:21:38Z</time>
      </trkpt>
      <trkpt lat="51.21395047074" lon="4.48096960733">
        <ele>0</ele>
        <time>2019-04-28T13:21:54Z</time>
      </trkpt>
      <trkpt lat="51.213465074911" lon="4.480580184256">
        <ele>0</ele>
        <time>2019-04-28T13:22:09Z</time>
      </trkpt>
      <trkpt lat="51.212969201707" lon="4.480178523608">
        <ele>0</ele>
        <time>2019-04-28T13:22:26Z</time>
      </trkpt>
      <trkpt lat="51.212478190005" lon="4.479785077222">
        <ele>0</ele>
        <time>2019-04-28T13:22:42Z</time>
      </trkpt>
      <trkpt lat="51.212008971243" lon="4.479342512902">
        <ele>0</ele>
        <time>2019-04-28T13:22:59Z</time>
      </trkpt>
      <trkpt lat="51.21157923123" lon="4.478772459883">
        <ele>0</ele>
        <time>2019-04-28T13:23:14Z</time>
      </trkpt>
      <trkpt lat="51.211291145327" lon="4.478047844628">
        <ele>0</ele>
        <time>2019-04-28T13:23:34Z</time>
      </trkpt>
      <trkpt lat="51.210925694487" lon="4.47736539033">
        <ele>0</ele>
        <time>2019-04-28T13:23:52Z</time>
      </trkpt>
      <trkpt lat="51.210654456203" lon="4.476575060979">
        <ele>0</ele>
        <time>2019-04-28T13:24:09Z</time>
      </trkpt>
      <trkpt lat="51.210453122965" lon="4.475778361384">
        <ele>0</ele>
        <time>2019-04-28T13:24:26Z</time>
      </trkpt>
      <trkpt lat="51.210282467481" lon="4.474951067854">
        <ele>0</ele>
        <time>2019-04-28T13:24:44Z</time>
      </trkpt>
      <trkpt lat="51.210072249429" lon="4.474136514812">
        <ele>0.2</ele>
        <time>2019-04-28T13:25:01Z</time>
      </trkpt>
      <trkpt lat="51.209722221285" lon="4.473422293113">
        <ele>4</ele>
        <time>2019-04-28T13:25:19Z</time>
      </trkpt>
      <trkpt lat="51.209299186792" lon="4.472859699985">
        <ele>5.8</ele>
        <time>2019-04-28T13:25:35Z</time>
      </trkpt>
      <trkpt lat="51.208790405462" lon="4.472536913016">
        <ele>0.6</ele>
        <time>2019-04-28T13:25:53Z</time>
      </trkpt>
      <trkpt lat="51.208257651898" lon="4.472304902024">
        <ele>1.4</ele>
        <time>2019-04-28T13:26:11Z</time>
      </trkpt>
      <trkpt lat="51.207719785375" lon="4.472007512212">
        <ele>1.4</ele>
        <time>2019-04-28T13:26:30Z</time>
      </trkpt>
      <trkpt lat="51.207212345149" lon="4.471672822945">
        <ele>1.6</ele>
        <time>2019-04-28T13:26:47Z</time>
      </trkpt>
      <trkpt lat="51.206672718427" lon="4.471412062036">
        <ele>2.4</ele>
        <time>2019-04-28T13:27:05Z</time>
      </trkpt>
      <trkpt lat="51.206125045081" lon="4.47116781347">
        <ele>4.8</ele>
        <time>2019-04-28T13:27:22Z</time>
      </trkpt>
      <trkpt lat="51.205792283651" lon="4.471091454361">
        <ele>10</ele>
        <time>2019-04-28T13:27:33Z</time>
      </trkpt>
      <trkpt lat="51.205815250057" lon="4.471039151305">
        <ele>9.4</ele>
        <time>2019-04-28T13:27:50Z</time>
      </trkpt>
      <trkpt lat="51.205780800448" lon="4.470983830765">
        <ele>8.2</ele>
        <time>2019-04-28T13:27:56Z</time>
      </trkpt>
      <trkpt lat="51.205249304169" lon="4.470691386274">
        <ele>3.4</ele>
        <time>2019-04-28T13:28:16Z</time>
      </trkpt>
      <trkpt lat="51.204728452903" lon="4.470439761636">
        <ele>4.4</ele>
        <time>2019-04-28T13:28:33Z</time>
      </trkpt>
      <trkpt lat="51.204173235847" lon="4.4702935813">
        <ele>15.8</ele>
        <time>2019-04-28T13:28:49Z</time>
      </trkpt>
      <trkpt lat="51.203651462572" lon="4.470072802054">
        <ele>12.6</ele>
        <time>2019-04-28T13:29:04Z</time>
      </trkpt>
      <trkpt lat="51.203108986004" lon="4.46984682603">
        <ele>20.4</ele>
        <time>2019-04-28T13:29:22Z</time>
      </trkpt>
      <trkpt lat="51.203017790932" lon="4.469711793621">
        <ele>19.6</ele>
        <time>2019-04-28T13:29:33Z</time>
      </trkpt>
      <trkpt lat="51.202648149142" lon="4.469071416461">
        <ele>21</ele>
        <time>2019-04-28T13:29:53Z</time>
      </trkpt>
      <trkpt lat="51.20259551081" lon="4.468186539278">
        <ele>14.6</ele>
        <time>2019-04-28T13:30:10Z</time>
      </trkpt>
      <trkpt lat="51.202658039784" lon="4.467319515542">
        <ele>13.4</ele>
        <time>2019-04-28T13:30:25Z</time>
      </trkpt>
      <trkpt lat="51.202728447744" lon="4.466441930612">
        <ele>3.4</ele>
        <time>2019-04-28T13:30:42Z</time>
      </trkpt>
      <trkpt lat="51.202740014766" lon="4.465541546914">
        <ele>15.4</ele>
        <time>2019-04-28T13:31:01Z</time>
      </trkpt>
      <trkpt lat="51.202749905408" lon="4.464644935071">
        <ele>21</ele>
        <time>2019-04-28T13:31:19Z</time>
      </trkpt>
      <trkpt lat="51.20272543026" lon="4.464197760706">
        <ele>20.6</ele>
        <time>2019-04-28T13:31:26Z</time>
      </trkpt>
      <trkpt lat="51.202687041158" lon="4.463359822163">
        <ele>16</ele>
        <time>2019-04-28T13:31:43Z</time>
      </trkpt>
      <trkpt lat="51.2024957662" lon="4.462520039602">
        <ele>18</ele>
        <time>2019-04-28T13:32:00Z</time>
      </trkpt>
      <trkpt lat="51.202243303372" lon="4.461748904802">
        <ele>6.6</ele>
        <time>2019-04-28T13:32:18Z</time>
      </trkpt>
      <trkpt lat="51.201833009367" lon="4.461117160999">
        <ele>8.4</ele>
        <time>2019-04-28T13:32:35Z</time>
      </trkpt>
      <trkpt lat="51.20142120662" lon="4.460530511818">
        <ele>5.8</ele>
        <time>2019-04-28T13:32:53Z</time>
      </trkpt>
      <trkpt lat="51.200920136638" lon="4.460168329919">
        <ele>3.8</ele>
        <time>2019-04-28T13:33:10Z</time>
      </trkpt>
      <trkpt lat="51.200378246803" lon="4.459925590095">
        <ele>4.2</ele>
        <time>2019-04-28T13:33:26Z</time>
      </trkpt>
      <trkpt lat="51.199848259266" lon="4.459759879932">
        <ele>1.8</ele>
        <time>2019-04-28T13:33:45Z</time>
      </trkpt>
      <trkpt lat="51.199311314752" lon="4.459691399809">
        <ele>5.4</ele>
        <time>2019-04-28T13:34:06Z</time>
      </trkpt>
      <trkpt lat="51.198918958013" lon="4.459651669603">
        <ele>6.2</ele>
        <time>2019-04-28T13:34:18Z</time>
      </trkpt>
      <trkpt lat="51.198917616909" lon="4.458769642266">
        <ele>4.2</ele>
        <time>2019-04-28T13:34:40Z</time>
      </trkpt>
      <trkpt lat="51.198878054341" lon="4.457881579961">
        <ele>2.6</ele>
        <time>2019-04-28T13:35:00Z</time>
      </trkpt>
      <trkpt lat="51.198868498975" lon="4.456999301167">
        <ele>1</ele>
        <time>2019-04-28T13:35:19Z</time>
      </trkpt>
      <trkpt lat="51.19881275934" lon="4.456115429812">
        <ele>0.6</ele>
        <time>2019-04-28T13:35:38Z</time>
      </trkpt>
      <trkpt lat="51.198677224017" lon="4.455238180158">
        <ele>2</ele>
        <time>2019-04-28T13:35:56Z</time>
      </trkpt>
      <trkpt lat="51.198570690068" lon="4.454837860614">
        <ele>0.6</ele>
        <time>2019-04-28T13:36:05Z</time>
      </trkpt>
      <trkpt lat="51.19908852385" lon="4.454955458671">
        <ele>5</ele>
        <time>2019-04-28T13:36:23Z</time>
      </trkpt>
      <trkpt lat="51.199616835007" lon="4.455245137135">
        <ele>7.4</ele>
        <time>2019-04-28T13:36:40Z</time>
      </trkpt>
      <trkpt lat="51.200131316029" lon="4.455553842512">
        <ele>9</ele>
        <time>2019-04-28T13:36:56Z</time>
      </trkpt>
      <trkpt lat="51.200207591319" lon="4.455589046492">
        <ele>8.2</ele>
        <time>2019-04-28T13:37:01Z</time>
      </trkpt>
      <trkpt lat="51.200425939814" lon="4.455620897712">
        <ele>3</ele>
        <time>2019-04-28T13:38:39Z</time>
      </trkpt>
      <trkpt lat="51.200442619795" lon="4.455699436115">
        <ele>3.2</ele>
        <time>2019-04-28T13:38:47Z</time>
      </trkpt>
      <trkpt lat="51.200426191271" lon="4.456578110692">
        <ele>0.2</ele>
        <time>2019-04-28T13:39:07Z</time>
      </trkpt>
      <trkpt lat="51.200265594067" lon="4.45741982109">
        <ele>0</ele>
        <time>2019-04-28T13:39:25Z</time>
      </trkpt>
      <trkpt lat="51.200698183926" lon="4.457194431799">
        <ele>0</ele>
        <time>2019-04-28T13:39:44Z</time>
      </trkpt>
      <trkpt lat="51.201068580087" lon="4.456546510929">
        <ele>0</ele>
        <time>2019-04-28T13:40:02Z</time>
      </trkpt>
      <trkpt lat="51.201091295036" lon="4.455688623464">
        <ele>0</ele>
        <time>2019-04-28T13:40:19Z</time>
      </trkpt>
      <trkpt lat="51.201335962697" lon="4.45490525109">
        <ele>0</ele>
        <time>2019-04-28T13:40:39Z</time>
      </trkpt>
      <trkpt lat="51.201451130003" lon="4.454038730268">
        <ele>0</ele>
        <time>2019-04-28T13:40:57Z</time>
      </trkpt>
      <trkpt lat="51.201673753267" lon="4.453197941879">
        <ele>0</ele>
        <time>2019-04-28T13:41:14Z</time>
      </trkpt>
      <trkpt lat="51.201918001833" lon="4.45241666498">
        <ele>0</ele>
        <time>2019-04-28T13:41:31Z</time>
      </trkpt>
      <trkpt lat="51.202029816379" lon="4.451812665266">
        <ele>0</ele>
        <time>2019-04-28T13:41:43Z</time>
      </trkpt>
      <trkpt lat="51.202380431256" lon="4.451108837123">
        <ele>0</ele>
        <time>2019-04-28T13:41:59Z</time>
      </trkpt>
      <trkpt lat="51.20247564964" lon="4.450571138238">
        <ele>0</ele>
        <time>2019-04-28T13:42:12Z</time>
      </trkpt>
      <trkpt lat="51.202431896122" lon="4.450565270908">
        <ele>0</ele>
        <time>2019-04-28T13:42:14Z</time>
      </trkpt>
      <trkpt lat="51.201884222776" lon="4.45054331033">
        <ele>0</ele>
        <time>2019-04-28T13:42:34Z</time>
      </trkpt>
      <trkpt lat="51.20134157857" lon="4.450466532126">
        <ele>0</ele>
        <time>2019-04-28T13:42:51Z</time>
      </trkpt>
      <trkpt lat="51.200788037894" lon="4.450516739707">
        <ele>0</ele>
        <time>2019-04-28T13:43:10Z</time>
      </trkpt>
      <trkpt lat="51.200291075043" lon="4.450899624899">
        <ele>0</ele>
        <time>2019-04-28T13:43:31Z</time>
      </trkpt>
      <trkpt lat="51.199834932045" lon="4.451384769271">
        <ele>0</ele>
        <time>2019-04-28T13:43:48Z</time>
      </trkpt>
      <trkpt lat="51.199429583361" lon="4.451989774813">
        <ele>0</ele>
        <time>2019-04-28T13:44:08Z</time>
      </trkpt>
      <trkpt lat="51.199234201272" lon="4.452828551546">
        <ele>0</ele>
        <time>2019-04-28T13:44:28Z</time>
      </trkpt>
      <trkpt lat="51.19897201544" lon="4.453607481513">
        <ele>0</ele>
        <time>2019-04-28T13:44:45Z</time>
      </trkpt>
      <trkpt lat="51.198552668983" lon="4.454212403236">
        <ele>0</ele>
        <time>2019-04-28T13:45:02Z</time>
      </trkpt>
      <trkpt lat="51.198396933281" lon="4.454444498047">
        <ele>0</ele>
        <time>2019-04-28T13:45:10Z</time>
      </trkpt>
      <trkpt lat="51.198363740957" lon="4.454493280705">
        <ele>0</ele>
        <time>2019-04-28T13:45:19Z</time>
      </trkpt>
      <trkpt lat="51.198333985212" lon="4.45454650577">
        <ele>0</ele>
        <time>2019-04-28T13:45:24Z</time>
      </trkpt>
      <trkpt lat="51.197850181944" lon="4.456029934432">
        <ele>0</ele>
        <time>2019-04-28T13:45:57Z</time>
      </trkpt>
      <trkpt lat="51.19756972357" lon="4.456825460561">
        <ele>0</ele>
        <time>2019-04-28T13:46:12Z</time>
      </trkpt>
      <trkpt lat="51.197343663727" lon="4.457646048571">
        <ele>0</ele>
        <time>2019-04-28T13:46:27Z</time>
      </trkpt>
      <trkpt lat="51.19705004577" lon="4.458416093724">
        <ele>0</ele>
        <time>2019-04-28T13:46:43Z</time>
      </trkpt>
      <trkpt lat="51.196700017626" lon="4.459100475859">
        <ele>0</ele>
        <time>2019-04-28T13:47:00Z</time>
      </trkpt>
      <trkpt lat="51.196385780195" lon="4.459668181946">
        <ele>0</ele>
        <time>2019-04-28T13:47:18Z</time>
      </trkpt>
      <trkpt lat="51.196930100781" lon="4.459764909072">
        <ele>0</ele>
        <time>2019-04-28T13:47:35Z</time>
      </trkpt>
      <trkpt lat="51.197468554037" lon="4.459890134658">
        <ele>0</ele>
        <time>2019-04-28T13:47:49Z</time>
      </trkpt>
      <trkpt lat="51.198035421934" lon="4.459993232028">
        <ele>0</ele>
        <time>2019-04-28T13:48:04Z</time>
      </trkpt>
      <trkpt lat="51.198164587013" lon="4.460012845674">
        <ele>0</ele>
        <time>2019-04-28T13:48:07Z</time>
      </trkpt>
      <trkpt lat="51.198716954223" lon="4.460031788768">
        <ele>9.6</ele>
        <time>2019-04-28T13:48:23Z</time>
      </trkpt>
      <trkpt lat="51.198996155312" lon="4.460691444298">
        <ele>3.2</ele>
        <time>2019-04-28T13:48:40Z</time>
      </trkpt>
      <trkpt lat="51.199131774454" lon="4.461531813592">
        <ele>3</ele>
        <time>2019-04-28T13:48:55Z</time>
      </trkpt>
      <trkpt lat="51.199273680021" lon="4.462365812642">
        <ele>2.2</ele>
        <time>2019-04-28T13:49:10Z</time>
      </trkpt>
      <trkpt lat="51.199323971421" lon="4.462386432116">
        <ele>2</ele>
        <time>2019-04-28T13:49:12Z</time>
      </trkpt>
      <trkpt lat="51.199875919536" lon="4.46229976327">
        <ele>0</ele>
        <time>2019-04-28T13:49:28Z</time>
      </trkpt>
      <trkpt lat="51.200289566301" lon="4.462312252301">
        <ele>0</ele>
        <time>2019-04-28T13:49:39Z</time>
      </trkpt>
      <trkpt lat="51.200395094422" lon="4.463188160851">
        <ele>0</ele>
        <time>2019-04-28T13:49:54Z</time>
      </trkpt>
      <trkpt lat="51.200490648082" lon="4.464052921474">
        <ele>0.6</ele>
        <time>2019-04-28T13:50:08Z</time>
      </trkpt>
      <trkpt lat="51.200639762083" lon="4.464771334123">
        <ele>0</ele>
        <time>2019-04-28T13:50:23Z</time>
      </trkpt>
      <trkpt lat="51.201182490108" lon="4.46461819681">
        <ele>2.4</ele>
        <time>2019-04-28T13:50:43Z</time>
      </trkpt>
      <trkpt lat="51.201730331092" lon="4.464508896834">
        <ele>7.4</ele>
        <time>2019-04-28T13:50:58Z</time>
      </trkpt>
      <trkpt lat="51.202263839027" lon="4.464392304605">
        <ele>9.8</ele>
        <time>2019-04-28T13:51:15Z</time>
      </trkpt>
      <trkpt lat="51.202487049024" lon="4.464293901099">
        <ele>12.8</ele>
        <time>2019-04-28T13:51:22Z</time>
      </trkpt>
      <trkpt lat="51.202602803063" lon="4.465172575676">
        <ele>6</ele>
        <time>2019-04-28T13:51:37Z</time>
      </trkpt>
      <trkpt lat="51.202601713416" lon="4.466051250253">
        <ele>3.6</ele>
        <time>2019-04-28T13:51:52Z</time>
      </trkpt>
      <trkpt lat="51.202569610739" lon="4.466918693084">
        <ele>4</ele>
        <time>2019-04-28T13:52:06Z</time>
      </trkpt>
      <trkpt lat="51.202448911379" lon="4.467812790357">
        <ele>0</ele>
        <time>2019-04-28T13:52:21Z</time>
      </trkpt>
      <trkpt lat="51.2024957662" lon="4.468667157424">
        <ele>0</ele>
        <time>2019-04-28T13:52:36Z</time>
      </trkpt>
      <trkpt lat="51.202546225238" lon="4.468898916959">
        <ele>0</ele>
        <time>2019-04-28T13:52:39Z</time>
      </trkpt>
      <trkpt lat="51.202604814719" lon="4.469099495826">
        <ele>0</ele>
        <time>2019-04-28T13:52:43Z</time>
      </trkpt>
      <trkpt lat="51.202932379371" lon="4.469819081941">
        <ele>0.2</ele>
        <time>2019-04-28T13:52:58Z</time>
      </trkpt>
      <trkpt lat="51.203453985008" lon="4.469992251995">
        <ele>22.8</ele>
        <time>2019-04-28T13:53:16Z</time>
      </trkpt>
      <trkpt lat="51.203647523079" lon="4.469934249247">
        <ele>47.4</ele>
        <time>2019-04-28T13:53:35Z</time>
      </trkpt>
      <trkpt lat="51.204157142599" lon="4.470321409208">
        <ele>38.4</ele>
        <time>2019-04-28T13:53:53Z</time>
      </trkpt>
      <trkpt lat="51.204714371311" lon="4.470503883171">
        <ele>41</ele>
        <time>2019-04-28T13:54:08Z</time>
      </trkpt>
      <trkpt lat="51.20527939519" lon="4.470675376845">
        <ele>44</ele>
        <time>2019-04-28T13:54:23Z</time>
      </trkpt>
      <trkpt lat="51.20562975861" lon="4.471112241473">
        <ele>36.2</ele>
        <time>2019-04-28T13:54:34Z</time>
      </trkpt>
      <trkpt lat="51.205687426082" lon="4.47139747753">
        <ele>0</ele>
        <time>2019-04-28T13:55:04Z</time>
      </trkpt>
      <trkpt lat="51.205700585665" lon="4.471408625457">
        <ele>0</ele>
        <time>2019-04-28T13:55:05Z</time>
      </trkpt>
      <trkpt lat="51.205757079671" lon="4.471438129745">
        <ele>0</ele>
        <time>2019-04-28T13:55:08Z</time>
      </trkpt>
      <trkpt lat="51.206328222337" lon="4.47140585943">
        <ele>22.2</ele>
        <time>2019-04-28T13:55:37Z</time>
      </trkpt>
      <trkpt lat="51.206853096915" lon="4.471695118799">
        <ele>25.2</ele>
        <time>2019-04-28T13:55:54Z</time>
      </trkpt>
      <trkpt lat="51.207359531313" lon="4.472057049241">
        <ele>13.2</ele>
        <time>2019-04-28T13:56:09Z</time>
      </trkpt>
      <trkpt lat="51.207504370545" lon="4.472172048909">
        <ele>4.6</ele>
        <time>2019-04-28T13:56:16Z</time>
      </trkpt>
      <trkpt lat="51.207510573151" lon="4.472150339788">
        <ele>0</ele>
        <time>2019-04-28T13:56:38Z</time>
      </trkpt>
      <trkpt lat="51.207568659718" lon="4.472171378357">
        <ele>0</ele>
        <time>2019-04-28T13:56:44Z</time>
      </trkpt>
      <trkpt lat="51.20808062617" lon="4.472488549453">
        <ele>0</ele>
        <time>2019-04-28T13:57:00Z</time>
      </trkpt>
      <trkpt lat="51.208520005368" lon="4.472721063359">
        <ele>0</ele>
        <time>2019-04-28T13:57:11Z</time>
      </trkpt>
      <trkpt lat="51.209020069522" lon="4.473068493114">
        <ele>0</ele>
        <time>2019-04-28T13:57:24Z</time>
      </trkpt>
      <trkpt lat="51.209097937373" lon="4.473124903301">
        <ele>0</ele>
        <time>2019-04-28T13:57:26Z</time>
      </trkpt>
      <trkpt lat="51.209522229151" lon="4.473696800338">
        <ele>0</ele>
        <time>2019-04-28T13:57:40Z</time>
      </trkpt>
      <trkpt lat="51.209841411903" lon="4.474405992897">
        <ele>0</ele>
        <time>2019-04-28T13:57:55Z</time>
      </trkpt>
      <trkpt lat="51.210049366842" lon="4.475201519026">
        <ele>0</ele>
        <time>2019-04-28T13:58:09Z</time>
      </trkpt>
      <trkpt lat="51.210218094489" lon="4.476059574129">
        <ele>0</ele>
        <time>2019-04-28T13:58:23Z</time>
      </trkpt>
      <trkpt lat="51.210312809959" lon="4.476335087182">
        <ele>0.4</ele>
        <time>2019-04-28T13:58:28Z</time>
      </trkpt>
      <trkpt lat="51.210518250328" lon="4.476791649275">
        <ele>5.4</ele>
        <time>2019-04-28T13:58:35Z</time>
      </trkpt>
      <trkpt lat="51.210558567267" lon="4.476917545413">
        <ele>5.4</ele>
        <time>2019-04-28T13:58:37Z</time>
      </trkpt>
      <trkpt lat="51.210752021519" lon="4.477492124658">
        <ele>3.8</ele>
        <time>2019-04-28T13:58:47Z</time>
      </trkpt>
      <trkpt lat="51.211043041087" lon="4.47825722449">
        <ele>1.8</ele>
        <time>2019-04-28T13:59:03Z</time>
      </trkpt>
      <trkpt lat="51.211385944616" lon="4.478938589141">
        <ele>0</ele>
        <time>2019-04-28T13:59:20Z</time>
      </trkpt>
      <trkpt lat="51.211786515617" lon="4.479543259407">
        <ele>0</ele>
        <time>2019-04-28T13:59:36Z</time>
      </trkpt>
      <trkpt lat="51.212262439899" lon="4.480067295795">
        <ele>0</ele>
        <time>2019-04-28T13:59:51Z</time>
      </trkpt>
      <trkpt lat="51.212743728597" lon="4.480470632823">
        <ele>0</ele>
        <time>2019-04-28T14:00:04Z</time>
      </trkpt>
      <trkpt lat="51.212821344991" lon="4.480524025526">
        <ele>0</ele>
        <time>2019-04-28T14:00:08Z</time>
      </trkpt>
      <trkpt lat="51.212839114619" lon="4.480514889255">
        <ele>0</ele>
        <time>2019-04-28T14:00:12Z</time>
      </trkpt>
      <trkpt lat="51.212839952809" lon="4.480480272008">
        <ele>0</ele>
        <time>2019-04-28T14:00:23Z</time>
      </trkpt>
      <trkpt lat="51.212858225351" lon="4.480411205152">
        <ele>0</ele>
        <time>2019-04-28T14:00:28Z</time>
      </trkpt>
      <trkpt lat="51.21316424852" lon="4.479647278786">
        <ele>0</ele>
        <time>2019-04-28T14:00:46Z</time>
      </trkpt>
      <trkpt lat="51.213328282303" lon="4.47921779023">
        <ele>0</ele>
        <time>2019-04-28T14:00:56Z</time>
      </trkpt>
      <trkpt lat="51.213775121392" lon="4.479703186059">
        <ele>0</ele>
        <time>2019-04-28T14:01:13Z</time>
      </trkpt>
      <trkpt lat="51.214243250507" lon="4.480156395392">
        <ele>0</ele>
        <time>2019-04-28T14:01:28Z</time>
      </trkpt>
      <trkpt lat="51.21476854418" lon="4.480470297547">
        <ele>0</ele>
        <time>2019-04-28T14:01:46Z</time>
      </trkpt>
      <trkpt lat="51.215295933328" lon="4.48036946329">
        <ele>0</ele>
        <time>2019-04-28T14:02:03Z</time>
      </trkpt>
      <trkpt lat="51.215846372701" lon="4.480414557912">
        <ele>0</ele>
        <time>2019-04-28T14:02:20Z</time>
      </trkpt>
      <trkpt lat="51.216115766967" lon="4.480374660068">
        <ele>0</ele>
        <time>2019-04-28T14:02:29Z</time>
      </trkpt>
      <trkpt lat="51.216122137211" lon="4.480310035619">
        <ele>0</ele>
        <time>2019-04-28T14:02:31Z</time>
      </trkpt>
      <trkpt lat="51.216131105844" lon="4.47943320506">
        <ele>0</ele>
        <time>2019-04-28T14:02:48Z</time>
      </trkpt>
      <trkpt lat="51.216103194117" lon="4.479282079403">
        <ele>0</ele>
        <time>2019-04-28T14:02:52Z</time>
      </trkpt>
      <trkpt lat="51.21560757237" lon="4.478895003261">
        <ele>0</ele>
        <time>2019-04-28T14:03:08Z</time>
      </trkpt>
      <trkpt lat="51.215817874241" lon="4.478160748821">
        <ele>0</ele>
        <time>2019-04-28T14:03:28Z</time>
      </trkpt>
      <trkpt lat="51.216242585114" lon="4.477634533139">
        <ele>0</ele>
        <time>2019-04-28T14:03:46Z</time>
      </trkpt>
      <trkpt lat="51.216441319963" lon="4.477599832073">
        <ele>0</ele>
        <time>2019-04-28T14:03:51Z</time>
      </trkpt>
      <trkpt lat="51.216995866467" lon="4.477572255622">
        <ele>0</ele>
        <time>2019-04-28T14:04:07Z</time>
      </trkpt>
      <trkpt lat="51.217275235194" lon="4.476860297036">
        <ele>0</ele>
        <time>2019-04-28T14:04:23Z</time>
      </trkpt>
      <trkpt lat="51.217277163031" lon="4.476708836103">
        <ele>0</ele>
        <time>2019-04-28T14:04:26Z</time>
      </trkpt>
      <trkpt lat="51.217354444149" lon="4.475812643355">
        <ele>0</ele>
        <time>2019-04-28T14:04:46Z</time>
      </trkpt>
      <trkpt lat="51.217383361704" lon="4.474917959349">
        <ele>0</ele>
        <time>2019-04-28T14:05:02Z</time>
      </trkpt>
      <trkpt lat="51.217374393071" lon="4.474017240375">
        <ele>0</ele>
        <time>2019-04-28T14:05:18Z</time>
      </trkpt>
      <trkpt lat="51.21740968087" lon="4.473118197781">
        <ele>0</ele>
        <time>2019-04-28T14:05:34Z</time>
      </trkpt>
      <trkpt lat="51.217435916217" lon="4.472228542915">
        <ele>0</ele>
        <time>2019-04-28T14:05:50Z</time>
      </trkpt>
      <trkpt lat="51.217485788522" lon="4.471333439814">
        <ele>0</ele>
        <time>2019-04-28T14:06:06Z</time>
      </trkpt>
      <trkpt lat="51.217521830692" lon="4.470649057679">
        <ele>0</ele>
        <time>2019-04-28T14:06:18Z</time>
      </trkpt>
      <trkpt lat="51.217572541187" lon="4.470640005227">
        <ele>0</ele>
        <time>2019-04-28T14:06:20Z</time>
      </trkpt>
      <trkpt lat="51.217908739196" lon="4.471341234981">
        <ele>0</ele>
        <time>2019-04-28T14:06:42Z</time>
      </trkpt>
      <trkpt lat="51.218224569188" lon="4.4720873079">
        <ele>0</ele>
        <time>2019-04-28T14:07:02Z</time>
      </trkpt>
      <trkpt lat="51.218733099061" lon="4.472442281365">
        <ele>0</ele>
        <time>2019-04-28T14:07:20Z</time>
      </trkpt>
      <trkpt lat="51.219193433009" lon="4.472581923819">
        <ele>0</ele>
        <time>2019-04-28T14:07:38Z</time>
      </trkpt>
      <trkpt lat="51.219210029171" lon="4.472538002663">
        <ele>0</ele>
        <time>2019-04-28T14:07:41Z</time>
      </trkpt>
      <trkpt lat="51.219355371317" lon="4.471713810436">
        <ele>0</ele>
        <time>2019-04-28T14:08:02Z</time>
      </trkpt>
      <trkpt lat="51.219532229407" lon="4.470864304871">
        <ele>0</ele>
        <time>2019-04-28T14:08:20Z</time>
      </trkpt>
      <trkpt lat="51.219611941276" lon="4.470505559551">
        <ele>0</ele>
        <time>2019-04-28T14:08:28Z</time>
      </trkpt>
      <trkpt lat="51.219641613202" lon="4.470485442991">
        <ele>0</ele>
        <time>2019-04-28T14:08:32Z</time>
      </trkpt>
      <trkpt lat="51.219655862432" lon="4.470468092458">
        <ele>0</ele>
        <time>2019-04-28T14:08:40Z</time>
      </trkpt>
      <trkpt lat="51.21969626319" lon="4.470505559551">
        <ele>0</ele>
        <time>2019-04-28T14:08:47Z</time>
      </trkpt>
      <trkpt lat="51.219758708345" lon="4.470519305867">
        <ele>0</ele>
        <time>2019-04-28T14:08:50Z</time>
      </trkpt>
      <trkpt lat="51.219801958949" lon="4.470473708331">
        <ele>0</ele>
        <time>2019-04-28T14:08:52Z</time>
      </trkpt>
      <trkpt lat="51.219990635518" lon="4.469643313498">
        <ele>0</ele>
        <time>2019-04-28T14:09:09Z</time>
      </trkpt>
      <trkpt lat="51.22017486968" lon="4.468833705777">
        <ele>0</ele>
        <time>2019-04-28T14:09:24Z</time>
      </trkpt>
      <trkpt lat="51.220132624904" lon="4.467595699147">
        <ele>0</ele>
        <time>2019-04-28T14:09:47Z</time>
      </trkpt>
      <trkpt lat="51.220136815854" lon="4.466730770886">
        <ele>0</ele>
        <time>2019-04-28T14:10:02Z</time>
      </trkpt>
      <trkpt lat="51.220090044852" lon="4.465865674987">
        <ele>0</ele>
        <time>2019-04-28T14:10:17Z</time>
      </trkpt>
      <trkpt lat="51.220120554968" lon="4.465005943504">
        <ele>0</ele>
        <time>2019-04-28T14:10:35Z</time>
      </trkpt>
      <trkpt lat="51.220155172215" lon="4.464145290012">
        <ele>0</ele>
        <time>2019-04-28T14:10:52Z</time>
      </trkpt>
      <trkpt lat="51.219983259446" lon="4.463286731995">
        <ele>0</ele>
        <time>2019-04-28T14:11:08Z</time>
      </trkpt>
      <trkpt lat="51.21993766191" lon="4.462424234485">
        <ele>0</ele>
        <time>2019-04-28T14:11:24Z</time>
      </trkpt>
      <trkpt lat="51.220044614954" lon="4.46156299426">
        <ele>0</ele>
        <time>2019-04-28T14:11:40Z</time>
      </trkpt>
      <trkpt lat="51.220287941511" lon="4.460787417053">
        <ele>2.2</ele>
        <time>2019-04-28T14:11:56Z</time>
      </trkpt>
      <trkpt lat="51.220407383586" lon="4.459916705281">
        <ele>0.4</ele>
        <time>2019-04-28T14:12:15Z</time>
      </trkpt>
      <trkpt lat="51.220445772688" lon="4.459633145604">
        <ele>0</ele>
        <time>2019-04-28T14:12:23Z</time>
      </trkpt>
      <trkpt lat="51.220448538715" lon="4.459627781188">
        <ele>0</ele>
        <time>2019-04-28T14:12:29Z</time>
      </trkpt>
      <trkpt lat="51.220472175673" lon="4.459573634114">
        <ele>0</ele>
        <time>2019-04-28T14:12:35Z</time>
      </trkpt>
      <trkpt lat="51.220392631442" lon="4.458682302868">
        <ele>0</ele>
        <time>2019-04-28T14:12:54Z</time>
      </trkpt>
      <trkpt lat="51.220386596474" lon="4.457803376834">
        <ele>0</ele>
        <time>2019-04-28T14:13:09Z</time>
      </trkpt>
      <trkpt lat="51.220375951461" lon="4.456923109696">
        <ele>0</ele>
        <time>2019-04-28T14:13:26Z</time>
      </trkpt>
      <trkpt lat="51.220266064752" lon="4.456049631897">
        <ele>0</ele>
        <time>2019-04-28T14:13:43Z</time>
      </trkpt>
      <trkpt lat="51.22014637122" lon="4.455394586412">
        <ele>0</ele>
        <time>2019-04-28T14:13:56Z</time>
      </trkpt>
      <trkpt lat="51.220171768377" lon="4.45533943351">
        <ele>0</ele>
        <time>2019-04-28T14:13:58Z</time>
      </trkpt>
      <trkpt lat="51.220581978563" lon="4.454778265305">
        <ele>0.4</ele>
        <time>2019-04-28T14:14:16Z</time>
      </trkpt>
      <trkpt lat="51.2210197652" lon="4.45447106867">
        <ele>0</ele>
        <time>2019-04-28T14:14:30Z</time>
      </trkpt>
      <trkpt lat="51.221213219452" lon="4.454489005936">
        <ele>0</ele>
        <time>2019-04-28T14:14:34Z</time>
      </trkpt>
      <trkpt lat="51.221354789743" lon="4.454463860236">
        <ele>0</ele>
        <time>2019-04-28T14:14:37Z</time>
      </trkpt>
      <trkpt lat="51.221796851149" lon="4.454479115294">
        <ele>0</ele>
        <time>2019-04-28T14:14:46Z</time>
      </trkpt>
      <trkpt lat="51.221881843615" lon="4.454475930172">
        <ele>0</ele>
        <time>2019-04-28T14:14:48Z</time>
      </trkpt>
      <trkpt lat="51.222437731223" lon="4.454458160544">
        <ele>0</ele>
        <time>2019-04-28T14:15:03Z</time>
      </trkpt>
      <trkpt lat="51.222819610587" lon="4.453877713969">
        <ele>0</ele>
        <time>2019-04-28T14:15:22Z</time>
      </trkpt>
      <trkpt lat="51.223156898243" lon="4.453160390967">
        <ele>0</ele>
        <time>2019-04-28T14:15:37Z</time>
      </trkpt>
      <trkpt lat="51.223470968036" lon="4.452450276399">
        <ele>0</ele>
        <time>2019-04-28T14:15:52Z</time>
      </trkpt>
      <trkpt lat="51.223810854081" lon="4.451771426318">
        <ele>0</ele>
        <time>2019-04-28T14:16:09Z</time>
      </trkpt>
      <trkpt lat="51.223899450764" lon="4.451745023333">
        <ele>0</ele>
        <time>2019-04-28T14:16:20Z</time>
      </trkpt>
      <trkpt lat="51.224424073885" lon="4.452081053704">
        <ele>0</ele>
        <time>2019-04-28T14:16:38Z</time>
      </trkpt>
      <trkpt lat="51.224791452562" lon="4.452165627075">
        <ele>0</ele>
        <time>2019-04-28T14:16:48Z</time>
      </trkpt>
      <trkpt lat="51.225017512405" lon="4.452167974007">
        <ele>0</ele>
        <time>2019-04-28T14:16:55Z</time>
      </trkpt>
      <trkpt lat="51.225297300227" lon="4.451376806466">
        <ele>0</ele>
        <time>2019-04-28T14:17:13Z</time>
      </trkpt>
      <trkpt lat="51.225639784661" lon="4.450666356622">
        <ele>0</ele>
        <time>2019-04-28T14:17:29Z</time>
      </trkpt>
      <trkpt lat="51.225972462272" lon="4.449946267593">
        <ele>0</ele>
        <time>2019-04-28T14:17:50Z</time>
      </trkpt>
      <trkpt lat="51.226453499513" lon="4.449451232579">
        <ele>0</ele>
        <time>2019-04-28T14:18:05Z</time>
      </trkpt>
      <trkpt lat="51.226942331921" lon="4.449029706828">
        <ele>2</ele>
        <time>2019-04-28T14:18:21Z</time>
      </trkpt>
      <trkpt lat="51.226974853693" lon="4.449021660204">
        <ele>2.4</ele>
        <time>2019-04-28T14:18:23Z</time>
      </trkpt>
      <trkpt lat="51.227075436493" lon="4.449072789794">
        <ele>3.4</ele>
        <time>2019-04-28T14:18:29Z</time>
      </trkpt>
      <trkpt lat="51.227410209579" lon="4.448334512042">
        <ele>4</ele>
        <time>2019-04-28T14:18:47Z</time>
      </trkpt>
      <trkpt lat="51.227817067005" lon="4.447703941705">
        <ele>4.6</ele>
        <time>2019-04-28T14:19:02Z</time>
      </trkpt>
      <trkpt lat="51.228223505336" lon="4.447081669449">
        <ele>6</ele>
        <time>2019-04-28T14:19:17Z</time>
      </trkpt>
      <trkpt lat="51.228261391524" lon="4.447087620598">
        <ele>5.2</ele>
        <time>2019-04-28T14:19:18Z</time>
      </trkpt>
      <trkpt lat="51.228646120734" lon="4.44772447736">
        <ele>0</ele>
        <time>2019-04-28T14:19:31Z</time>
      </trkpt>
      <trkpt lat="51.229020624026" lon="4.448385054899">
        <ele>0</ele>
        <time>2019-04-28T14:19:47Z</time>
      </trkpt>
      <trkpt lat="51.229028083917" lon="4.448429143693">
        <ele>0</ele>
        <time>2019-04-28T14:19:48Z</time>
      </trkpt>
      <trkpt lat="51.229011236298" lon="4.448602481385">
        <ele>0</ele>
        <time>2019-04-28T14:19:54Z</time>
      </trkpt>
      <trkpt lat="51.228929428954" lon="4.448699040873">
        <ele>0</ele>
        <time>2019-04-28T14:20:00Z</time>
      </trkpt>
      <trkpt lat="51.228865894152" lon="4.44868839586">
        <ele>0</ele>
        <time>2019-04-28T14:20:35Z</time>
      </trkpt>
      <trkpt lat="51.228860781193" lon="4.448750086644">
        <ele>0</ele>
        <time>2019-04-28T14:20:41Z</time>
      </trkpt>
      <trkpt lat="51.228537994224" lon="4.44922567565">
        <ele>0</ele>
        <time>2019-04-28T14:21:04Z</time>
      </trkpt>
    </trkseg>
  </trk>
</gpx>